Time;durP1;ratioP1;P1;durP2;ratioP2;P2;SDS_P1;SDS_P2;PMS_P1;PMS_P2;Temp;Humidity;BMP_temperature;BMP_pressure;BME280_temperature;BME280_humidity;BME280_pressure;Samples;Min_cycle;Max_cycle;Signal;HPM_P1;HPM_P2
2022/05/11 00:02:19;;;;;;;;;;;;;;;20.28;47.58;101198.48;104383;1310;73758;-80
2022/05/11 00:05:01;;;;;;;;;;;;;;;20.27;47.68;101202.06;104725;1305;74452;-83
2022/05/11 00:07:38;;;;;;;;;;;;;;;20.27;47.67;101199.42;104784;1305;62147;-84
2022/05/11 00:10:15;;;;;;;;;;;;;;;20.28;47.78;101199.92;104690;1305;61968;-87
2022/05/11 00:12:52;;;;;;;;;;;;;;;20.26;47.66;101200.31;104855;1304;72569;-83
2022/05/11 00:15:34;;;;;;;;;;;;;;;;;;;;;
2022/05/11 00:18:05;;;;;;;;;;;;;;;20.27;47.49;101200.30;104874;1305;62184;-81
2022/05/11 00:21:03;;;;;;;;;;;;;;;20.26;47.74;101198.17;104890;1305;62152;-82
2022/05/11 00:23:42;;;;;;;;;;;;;;;20.26;47.66;101198.00;104896;1305;72839;-83
2022/05/11 00:26:17;;;;;;;;;;;;;;;20.26;47.72;101195.34;104865;1305;75058;-83
2022/05/11 00:28:55;;;;;;;;;;;;;;;20.27;47.78;101197.62;104591;1308;62873;-82
2022/05/11 00:31:36;;;;;;;;;;;;;;;20.27;47.79;101195.30;104645;1299;62087;-83
2022/05/11 00:34:07;;;;;;;;;;;;;;;20.26;47.86;101189.95;105377;1299;72612;-85
2022/05/11 00:36:49;;;;;;;;;;;;;;;20.26;47.68;101184.79;105268;1299;75630;-83
2022/05/11 00:39:15;;;;;;;;;;;;;;;20.26;47.69;101180.67;105289;1298;62033;-90
2022/05/11 00:41:59;;;;;;;;;;;;;;;;;;;;;
2022/05/11 00:44:48;;;;;;;;;;;;;;;20.26;47.75;101174.06;105272;1299;71648;-83
2022/05/11 00:47:43;;;;;;;;;;;;;;;20.26;47.80;101173.19;105375;1298;75424;-81
2022/05/11 00:50:29;;;;;;;;;;;;;;;20.26;47.89;101172.27;105189;1298;61921;-82
2022/05/11 00:53:09;;;;;;;;;;;;;;;20.26;47.83;101170.70;104665;1308;62080;-86
2022/05/11 00:55:48;;;;;;;;;;;;;;;20.26;47.85;101175.33;104543;1308;72785;-85
2022/05/11 00:58:37;;;;;;;;;;;;;;;20.25;47.85;101173.04;104660;1308;76708;-82
2022/05/11 01:01:23;;;;;;;;;;;;;;;20.26;47.73;101170.70;104551;1308;62026;-85
2022/05/11 01:03:56;;;;;;;;;;;;;;;20.25;47.95;101169.09;104635;1307;62635;-85
2022/05/11 01:06:26;;;;;;;;;;;;;;;20.26;47.90;101169.63;104658;1307;72625;-84
2022/05/11 01:09:00;;;;;;;;;;;;;;;20.26;47.73;101167.84;104671;1308;77235;-85
2022/05/11 01:11:34;;;;;;;;;;;;;;;20.26;48.08;101164.80;104673;1307;61961;-80
2022/05/11 01:14:12;;;;;;;;;;;;;;;;;;;;;
2022/05/11 01:16:41;;;;;;;;;;;;;;;20.25;47.93;101162.71;104693;1306;72567;-81
2022/05/11 01:19:11;;;;;;;;;;;;;;;20.24;47.93;101162.37;104589;1308;76513;-86
2022/05/11 01:22:02;;;;;;;;;;;;;;;20.24;47.86;101165.59;104546;1308;61995;-83
2022/05/11 01:24:44;;;;;;;;;;;;;;;20.25;48.04;101162.54;104544;1307;62339;-82
2022/05/11 01:27:33;;;;;;;;;;;;;;;20.24;47.95;101162.73;104393;1308;72203;-84
2022/05/11 01:30:28;;;;;;;;;;;;;;;;;;;;;
2022/05/11 01:33:03;;;;;;;;;;;;;;;20.24;47.89;101170.27;105029;1299;61980;-83
2022/05/11 01:35:54;;;;;;;;;;;;;;;20.24;48.00;101173.64;105293;1299;62078;-82
2022/05/11 01:38:46;;;;;;;;;;;;;;;20.25;47.96;101174.70;105254;1299;73963;-82
2022/05/11 01:41:56;;;;;;;;;;;;;;;20.24;47.96;101175.06;105251;1299;76722;-86
2022/05/11 01:44:42;;;;;;;;;;;;;;;20.24;47.89;101176.70;105346;1298;61960;-82
2022/05/11 01:47:16;;;;;;;;;;;;;;;20.24;47.99;101179.71;105285;1299;61860;-83
2022/05/11 01:50:05;;;;;;;;;;;;;;;20.24;47.84;101181.87;105347;1299;73724;-83
2022/05/11 01:52:30;;;;;;;;;;;;;;;20.24;47.93;101180.96;105265;1299;75672;-84
2022/05/11 01:55:19;;;;;;;;;;;;;;;20.25;48.03;101185.24;104633;1308;62935;-86
2022/05/11 01:57:55;;;;;;;;;;;;;;;20.24;47.90;101177.77;104859;1304;62223;-82
2022/05/11 02:00:26;;;;;;;;;;;;;;;20.24;47.81;101177.41;104900;1305;71794;-82
2022/05/11 02:03:03;;;;;;;;;;;;;;;20.23;47.86;101177.29;104901;1305;74677;-83
2022/05/11 02:08:41;;;;;;;;;;;;;;;20.23;47.97;101182.98;104932;1305;62040;-85
2022/05/11 02:11:20;;;;;;;;;;;;;;;20.23;47.97;101188.02;104868;1305;72656;-87
2022/05/11 02:14:06;;;;;;;;;;;;;;;20.23;48.00;101180.86;104867;1303;75573;-82
2022/05/11 02:16:41;;;;;;;;;;;;;;;20.23;48.06;101179.08;104926;1303;62187;-82
2022/05/11 02:19:20;;;;;;;;;;;;;;;;;;;;;
2022/05/11 02:21:59;;;;;;;;;;;;;;;20.23;48.04;101185.15;104871;1303;72655;-83
2022/05/11 02:24:33;;;;;;;;;;;;;;;20.22;47.94;101184.48;104911;1303;75624;-86
2022/05/11 02:27:21;;;;;;;;;;;;;;;20.22;47.92;101180.58;104894;1303;62104;-83
2022/05/11 02:30:17;;;;;;;;;;;;;;;20.22;48.13;101181.66;104851;1304;61985;-83
2022/05/11 02:32:54;;;;;;;;;;;;;;;20.22;48.08;101182.73;105100;1299;72878;-81
2022/05/11 02:35:30;;;;;;;;;;;;;;;20.23;47.80;101186.62;105365;1299;74714;-84
2022/05/11 02:38:11;;;;;;;;;;;;;;;20.22;48.21;101184.32;105416;1298;61994;-85
2022/05/11 02:40:58;;;;;;;;;;;;;;;20.23;48.10;101176.08;105418;1299;62075;-81
2022/05/11 02:43:35;;;;;;;;;;;;;;;20.22;48.01;101170.59;105259;1299;73785;-82
2022/05/11 02:46:24;;;;;;;;;;;;;;;20.22;48.08;101172.03;105261;1299;76955;-82
2022/05/11 02:49:03;;;;;;;;;;;;;;;20.23;47.96;101172.88;105419;1298;61995;-83
2022/05/11 02:51:34;;;;;;;;;;;;;;;20.22;48.16;101169.88;105287;1299;61924;-82
2022/05/11 02:54:08;;;;;;;;;;;;;;;20.21;47.86;101168.13;105343;1299;72740;-85
2022/05/11 02:56:45;;;;;;;;;;;;;;;20.21;47.97;101170.80;105401;1298;75364;-86
2022/05/11 02:59:15;;;;;;;;;;;;;;;20.22;47.89;101172.38;105331;1299;62370;-85
2022/05/11 03:02:02;;;;;;;;;;;;;;;20.21;47.89;101170.81;105366;1299;61908;-81
2022/05/11 03:04:35;;;;;;;;;;;;;;;20.21;48.10;101170.13;105428;1298;72615;-83
2022/05/11 03:07:09;;;;;;;;;;;;;;;20.21;47.88;101171.34;105373;1299;75966;-84
2022/05/11 03:09:44;;;;;;;;;;;;;;;20.21;48.07;101170.10;104995;1297;61994;-85
2022/05/11 03:12:10;;;;;;;;;;;;;;;20.21;47.96;101170.10;105410;1297;62083;-82
2022/05/11 03:14:53;;;;;;;;;;;;;;;20.21;48.15;101168.52;105402;1297;73829;-84
2022/05/11 03:17:35;;;;;;;;;;;;;;;20.21;48.03;101168.70;105371;1297;75628;-83
2022/05/11 03:20:09;;;;;;;;;;;;;;;20.21;47.99;101169.95;105420;1297;62241;-84
2022/05/11 03:22:42;;;;;;;;;;;;;;;20.21;48.01;101167.77;105195;1300;61953;-84
2022/05/11 03:25:16;;;;;;;;;;;;;;;20.21;48.00;101167.59;105445;1298;72789;-83
2022/05/11 03:28:08;;;;;;;;;;;;;;;20.21;48.08;101169.91;104690;1305;74373;-83
2022/05/11 03:30:42;;;;;;;;;;;;;;;20.21;48.15;101169.40;104585;1305;62245;-84
2022/05/11 03:36:27;;;;;;;;;;;;;;;20.21;48.19;101175.48;104751;1304;71492;-82
2022/05/11 03:38:53;;;;;;;;;;;;;;;20.21;48.04;101178.13;104752;1305;75895;-84
2022/05/11 03:41:18;;;;;;;;;;;;;;;20.21;48.20;101184.23;104677;1305;62114;-82
2022/05/11 03:44:04;;;;;;;;;;;;;;;20.21;48.18;101183.52;104691;1305;61964;-82
2022/05/11 03:46:48;;;;;;;;;;;;;;;20.21;48.21;101185.66;104781;1305;72806;-83
2022/05/11 03:49:24;;;;;;;;;;;;;;;20.21;48.09;101192.06;104769;1305;74713;-83
2022/05/11 03:52:01;;;;;;;;;;;;;;;20.21;48.21;101195.11;104776;1305;62222;-81
2022/05/11 03:54:38;;;;;;;;;;;;;;;20.21;48.01;101193.52;104737;1305;61872;-85
2022/05/11 03:57:11;;;;;;;;;;;;;;;20.22;48.11;101195.79;104758;1305;72790;-85
2022/05/11 03:59:46;;;;;;;;;;;;;;;20.22;48.16;101199.91;104480;1305;76573;-85
2022/05/11 04:02:28;;;;;;;;;;;;;;;20.22;48.32;101204.69;104806;1305;63009;-83
2022/05/11 04:04:59;;;;;;;;;;;;;;;20.23;48.06;101210.89;104866;1299;61980;-86
2022/05/11 04:07:34;;;;;;;;;;;;;;;20.23;48.04;101213.25;105290;1299;73740;-80
2022/05/11 04:10:13;;;;;;;;;;;;;;;20.23;48.11;101216.42;105378;1297;75597;-87
2022/05/11 04:12:48;;;;;;;;;;;;;;;20.23;48.09;101225.56;105426;1298;61921;-84
2022/05/11 04:15:22;;;;;;;;;;;;;;;20.24;48.07;101226.77;105323;1299;62208;-85
2022/05/11 04:17:56;;;;;;;;;;;;;;;20.23;48.07;101233.07;105353;1298;73922;-80
2022/05/11 04:20:33;;;;;;;;;;;;;;;20.22;48.14;101231.69;105218;1299;75647;-84
2022/05/11 04:23:19;;;;;;;;;;;;;;;20.22;47.88;101234.93;105310;1298;62003;-83
2022/05/11 04:25:52;;;;;;;;;;;;;;;20.23;47.98;101238.27;105326;1298;62109;-84
2022/05/11 04:28:20;;;;;;;;;;;;;;;20.23;48.02;101234.29;105099;1299;71484;-83
2022/05/11 04:30:46;;;;;;;;;;;;;;;20.23;47.88;101231.23;104982;1299;75564;-82
2022/05/11 04:33:12;;;;;;;;;;;;;;;20.23;47.92;101230.34;105088;1298;62536;-86
2022/05/11 04:35:55;;;;;;;;;;;;;;;20.24;47.74;101230.52;104851;1299;62030;-83
2022/05/11 04:38:23;;;;;;;;;;;;;;;20.24;47.81;101231.18;104798;1297;72744;-82
2022/05/11 04:40:49;;;;;;;;;;;;;;;20.25;47.88;101234.58;104599;1297;75560;-82
2022/05/11 04:43:15;;;;;;;;;;;;;;;20.24;47.90;101236.55;104715;1299;62264;-82
2022/05/11 04:45:41;;;;;;;;;;;;;;;20.24;47.85;101233.50;104817;1297;60964;-81
2022/05/11 04:48:06;;;;;;;;;;;;;;;20.25;47.61;101236.71;104757;1298;62141;-83
2022/05/11 04:50:32;;;;;;;;;;;;;;;20.24;47.68;101240.52;104770;1297;62094;-82
2022/05/11 04:53:03;;;;;;;;;;;;;;;20.23;47.60;101242.33;104617;1298;62400;-82
2022/05/11 04:55:36;;;;;;;;;;;;;;;20.22;47.62;101243.64;104533;1297;62178;-85
2022/05/11 04:58:50;;;;;;;;;;;;;;;20.21;47.46;101248.71;104414;1299;73883;-84
2022/05/11 05:01:22;;;;;;;;;;;;;;;20.18;47.46;101247.69;104070;1298;75591;-81
2022/05/11 05:03:47;;;;;;;;;;;;;;;20.16;47.57;101249.22;104393;1299;62140;-82
2022/05/11 05:06:13;;;;;;;;;;;;;;;20.10;47.27;101252.27;104431;1299;60822;-84
2022/05/11 05:08:44;;;;;;;;;;;;;;;20.05;47.42;101253.81;104405;1299;71751;-82
2022/05/11 05:11:10;;;;;;;;;;;;;;;20.06;47.50;101254.09;104532;1299;62134;-82
2022/05/11 05:13:35;;;;;;;;;;;;;;;20.07;47.44;101247.41;104503;1299;62122;-82
2022/05/11 05:16:01;;;;;;;;;;;;;;;20.08;47.45;101244.66;104761;1297;62096;-83
2022/05/11 05:18:26;;;;;;;;;;;;;;;20.10;47.51;101243.84;104751;1299;62209;-82
2022/05/11 05:20:54;;;;;;;;;;;;;;;20.13;47.50;101241.38;104718;1296;74095;-81
2022/05/11 05:23:19;;;;;;;;;;;;;;;20.14;47.28;101238.09;104594;1297;78802;-82
2022/05/11 05:25:44;;;;;;;;;;;;;;;20.16;47.33;101235.67;104724;1297;60889;-82
2022/05/11 05:31:23;;;;;;;;;;;;;;;20.20;47.22;101226.30;103806;1306;71910;-82
2022/05/11 05:33:58;;;;;;;;;;;;;;;20.22;47.26;101227.44;103922;1306;62128;-81
2022/05/11 05:36:23;;;;;;;;;;;;;;;20.24;47.13;101229.96;104029;1306;62238;-82
2022/05/11 05:39:16;;;;;;;;;;;;;;;20.26;47.22;101233.40;103903;1305;62127;-83
2022/05/11 05:41:41;;;;;;;;;;;;;;;20.29;47.06;101235.05;103549;1313;72223;-82
2022/05/11 05:44:07;;;;;;;;;;;;;;;20.30;47.08;101236.55;103532;1313;62238;-82
2022/05/11 05:46:34;;;;;;;;;;;;;;;20.32;47.15;101237.50;103425;1313;62119;-82
2022/05/11 05:49:01;;;;;;;;;;;;;;;20.34;46.85;101239.58;103562;1313;62583;-82
2022/05/11 05:51:27;;;;;;;;;;;;;;;20.35;46.96;101243.98;103359;1313;62098;-81
2022/05/11 05:53:52;;;;;;;;;;;;;;;20.35;46.86;101250.08;103408;1313;62151;-82
2022/05/11 05:56:18;;;;;;;;;;;;;;;20.33;46.90;101253.21;103389;1313;62119;-82
2022/05/11 05:58:47;;;;;;;;;;;;;;;20.32;46.79;101260.61;103577;1313;62047;-80
2022/05/11 06:01:16;;;;;;;;;;;;;;;20.28;46.75;101263.14;103450;1313;63534;-81
2022/05/11 06:03:42;;;;;;;;;;;;;;;20.27;46.83;101268.57;103312;1313;76635;-82
2022/05/11 06:06:07;;;;;;;;;;;;;;;20.28;46.76;101270.70;103377;1313;62180;-83
2022/05/11 06:08:34;;;;;;;;;;;;;;;20.29;46.83;101273.14;103756;1305;62113;-82
2022/05/11 06:11:26;;;;;;;;;;;;;;;20.30;47.10;101270.89;103991;1305;62174;-81
2022/05/11 06:13:51;;;;;;;;;;;;;;;20.34;47.03;101271.58;103768;1308;75607;-81
2022/05/11 06:16:17;;;;;;;;;;;;;;;20.35;47.02;101271.31;103774;1308;62050;-82
2022/05/11 06:18:45;;;;;;;;;;;;;;;20.36;47.22;101267.13;103832;1302;62134;-81
2022/05/11 06:21:11;;;;;;;;;;;;;;;20.38;47.07;101266.67;104112;1302;62184;-80
2022/05/11 06:23:37;;;;;;;;;;;;;;;20.39;47.27;101264.44;104188;1302;62317;-79
2022/05/11 06:26:02;;;;;;;;;;;;;;;20.41;47.08;101268.83;104092;1303;62108;-82
2022/05/11 06:28:29;;;;;;;;;;;;;;;20.42;46.89;101272.49;104159;1303;62126;-80
2022/05/11 06:30:54;;;;;;;;;;;;;;;20.44;47.01;101270.02;104142;1302;62011;-80
2022/05/11 06:33:20;;;;;;;;;;;;;;;20.45;47.04;101271.59;104125;1302;62072;-81
2022/05/11 06:35:46;;;;;;;;;;;;;;;20.46;46.91;101271.56;104257;1302;64169;-81
2022/05/11 06:38:12;;;;;;;;;;;;;;;20.45;47.02;101274.27;104204;1302;62049;-81
2022/05/11 06:40:38;;;;;;;;;;;;;;;20.46;46.99;101274.77;104247;1303;62344;-81
2022/05/11 06:43:03;;;;;;;;;;;;;;;20.47;46.93;101273.06;104423;1302;62232;-81
2022/05/11 06:45:29;;;;;;;;;;;;;;;20.49;46.80;101274.95;104959;1302;62040;-81
2022/05/11 06:47:55;;;;;;;;;;;;;;;20.48;46.93;101271.21;104300;1303;62127;-79
2022/05/11 06:50:21;;;;;;;;;;;;;;;20.46;46.98;101269.39;104212;1297;62100;-80
2022/05/11 06:52:47;;;;;;;;;;;;;;;20.43;46.73;101275.30;104428;1297;62066;-81
2022/05/11 07:00:40;;;;;;;;;;;;;;;20.31;46.64;101270.85;104572;1297;62004;-82
2022/05/11 07:03:06;;;;;;;;;;;;;;;20.32;46.73;101272.19;104479;1297;62116;-81
2022/05/11 07:05:32;;;;;;;;;;;;;;;20.34;46.56;101264.58;104336;1297;62153;-81
2022/05/11 07:07:59;;;;;;;;;;;;;;;20.36;46.77;101263.73;104440;1297;62184;-82
2022/05/11 07:10:26;;;;;;;;;;;;;;;20.40;46.83;101262.25;104616;1297;60309;-83
2022/05/11 07:12:52;;;;;;;;;;;;;;;20.43;46.83;101262.96;104304;1295;61994;-82
2022/05/11 07:15:37;;;;;;;;;;;;;;;;;;;;;
2022/05/11 07:18:03;;;;;;;;;;;;;;;20.50;47.15;101260.05;104465;1297;77561;-84
2022/05/11 07:20:58;;;;;;;;;;;;;;;20.51;47.19;101258.87;104632;1296;63248;-81
2022/05/11 07:23:25;;;;;;;;;;;;;;;20.50;47.23;101260.00;104613;1296;62090;-83
2022/05/11 07:25:51;;;;;;;;;;;;;;;20.51;47.29;101264.59;104383;1299;73069;-83
2022/05/11 07:28:19;;;;;;;;;;;;;;;20.52;47.23;101264.73;104425;1297;62139;-83
2022/05/11 07:30:47;;;;;;;;;;;;;;;20.53;46.98;101260.54;104421;1296;62095;-84
2022/05/11 07:33:48;;;;;;;;;;;;;;;20.55;47.23;101265.08;104347;1297;62100;-83
2022/05/11 07:39:11;;;;;;;;;;;;;;;20.57;47.11;101265.63;104478;1297;75352;-82
2022/05/11 07:41:58;;;;;;;;;;;;;;;20.58;46.97;101265.98;104569;1297;62136;-83
2022/05/11 07:44:30;;;;;;;;;;;;;;;20.58;47.21;101270.61;104534;1297;62021;-83
2022/05/11 07:47:10;;;;;;;;;;;;;;;20.59;47.19;101268.39;104357;1297;72831;-83
2022/05/11 07:50:10;;;;;;;;;;;;;;;20.60;47.21;101269.04;104274;1296;75051;-83
2022/05/11 07:52:38;;;;;;;;;;;;;;;20.61;47.32;101268.30;103590;1303;62089;-86
2022/05/11 07:55:07;;;;;;;;;;;;;;;20.62;47.24;101266.43;103876;1302;62109;-82
2022/05/11 08:00:26;;;;;;;;;;;;;;;20.67;47.46;101268.45;103800;1302;75568;-84
2022/05/11 08:03:08;;;;;;;;;;;;;;;20.68;47.08;101266.64;103598;1302;62008;-82
2022/05/11 08:05:36;;;;;;;;;;;;;;;20.71;47.33;101264.30;103860;1302;61902;-84
2022/05/11 08:08:02;;;;;;;;;;;;;;;20.72;47.39;101266.54;103723;1303;62251;-83
2022/05/11 08:10:33;;;;;;;;;;;;;;;20.74;47.37;101263.23;103862;1303;62223;-83
2022/05/11 08:13:05;;;;;;;;;;;;;;;20.77;47.54;101261.10;105603;1301;59967;-83
2022/05/11 08:15:33;;;;;;;;;;;;;;;20.79;47.63;101261.65;105609;1302;61828;-83
2022/05/11 08:17:59;;;;;;;;;;;;;;;20.82;47.72;101261.67;105486;1303;72741;-83
2022/05/11 08:20:26;;;;;;;;;;;;;;;20.84;47.76;101263.85;105472;1302;60689;-83
2022/05/11 08:23:00;;;;;;;;;;;;;;;20.85;47.82;101265.60;105486;1302;60532;-84
2022/05/11 08:25:26;;;;;;;;;;;;;;;20.86;47.87;101259.05;105578;1302;61354;-82
2022/05/11 08:27:52;;;;;;;;;;;;;;;20.88;47.69;101257.89;105449;1302;74428;-83
2022/05/11 08:35:47;;;;;;;;;;;;;;;20.86;47.09;101252.48;106082;1297;62064;-81
2022/05/11 08:38:13;;;;;;;;;;;;;;;20.84;47.06;101251.16;105943;1297;72878;-81
2022/05/11 08:40:38;;;;;;;;;;;;;;;20.85;46.93;101249.32;106141;1296;60256;-81
2022/05/11 08:43:05;;;;;;;;;;;;;;;20.85;46.96;101245.02;106101;1297;60046;-82
2022/05/11 08:45:39;;;;;;;;;;;;;;;20.85;46.94;101246.98;105954;1297;60776;-83
2022/05/11 08:48:15;;;;;;;;;;;;;;;20.86;46.91;101242.45;105882;1297;72758;-83
2022/05/11 08:50:43;;;;;;;;;;;;;;;20.85;46.69;101235.85;104523;1299;76028;-83
2022/05/11 08:53:28;;;;;;;;;;;;;;;20.88;46.76;101239.10;104175;1298;63426;-81
2022/05/11 08:55:54;;;;;;;;;;;;;;;20.93;46.68;101237.34;104339;1297;61522;-83
2022/05/11 08:58:23;;;;;;;;;;;;;;;20.93;46.43;101236.95;104306;1297;62125;-80
2022/05/11 09:00:50;;;;;;;;;;;;;;;20.93;46.30;101236.95;104212;1297;75644;-82
2022/05/11 09:03:30;;;;;;;;;;;;;;;20.95;46.45;101232.59;104307;1297;62017;-84
2022/05/11 09:05:57;;;;;;;;;;;;;;;20.96;46.68;101227.13;105876;1297;61443;-81
2022/05/11 09:08:22;;;;;;;;;;;;;;;20.98;46.62;101227.71;105921;1297;74178;-83
2022/05/11 09:13:49;;;;;;;;;;;;;;;21.00;46.83;101224.60;106100;1297;60314;-83
2022/05/11 09:16:37;;;;;;;;;;;;;;;;;;;;;
2022/05/11 09:19:19;;;;;;;;;;;;;;;21.01;46.87;101224.70;105310;1297;73664;-83
2022/05/11 09:22:04;;;;;;;;;;;;;;;21.00;46.91;101223.29;104557;1297;76596;-82
2022/05/11 09:24:31;;;;;;;;;;;;;;;20.99;46.75;101216.22;104557;1297;61959;-83
2022/05/11 09:27:08;;;;;;;;;;;;;;;20.98;46.60;101214.51;104473;1297;61960;-81
2022/05/11 09:29:53;;;;;;;;;;;;;;;20.98;46.75;101213.61;105888;1298;71555;-83
2022/05/11 09:32:29;;;;;;;;;;;;;;;20.97;46.81;101214.17;104606;1297;76593;-83
2022/05/11 09:34:54;;;;;;;;;;;;;;;20.97;46.58;101208.50;104464;1299;60333;-83
2022/05/11 09:37:42;;;;;;;;;;;;;;;20.95;46.74;101207.70;104605;1299;60357;-82
2022/05/11 09:40:20;;;;;;;;;;;;;;;20.95;46.79;101204.50;105660;1297;73302;-82
2022/05/11 09:43:23;;;;;;;;;;;;;;;20.95;46.90;101202.14;104753;1298;75578;-83
2022/05/11 09:46:18;;;;;;;;;;;;;;;20.96;46.79;101200.16;104115;1304;61048;-83
2022/05/11 09:48:55;;;;;;;;;;;;;;;20.96;46.88;101196.74;104059;1303;61990;-81
2022/05/11 09:51:27;;;;;;;;;;;;;;;20.95;47.00;101189.64;103886;1305;72861;-82
2022/05/11 09:53:54;;;;;;;;;;;;;;;20.96;46.96;101188.55;103832;1303;76546;-81
2022/05/11 09:56:24;;;;;;;;;;;;;;;20.96;47.13;101188.14;103521;1305;62107;-81
2022/05/11 09:58:50;;;;;;;;;;;;;;;20.98;47.42;101189.98;103745;1303;62004;-80
2022/05/11 10:01:26;;;;;;;;;;;;;;;20.99;47.26;101186.14;103561;1305;62194;-82
2022/05/11 10:03:52;;;;;;;;;;;;;;;21.00;47.16;101184.65;103562;1303;79474;-81
2022/05/11 10:06:19;;;;;;;;;;;;;;;21.00;47.03;101183.40;103659;1305;62122;-81
2022/05/11 10:08:45;;;;;;;;;;;;;;;21.01;46.96;101181.04;103870;1303;62127;-81
2022/05/11 10:11:14;;;;;;;;;;;;;;;21.01;46.95;101176.52;103762;1305;62167;-82
2022/05/11 10:13:49;;;;;;;;;;;;;;;21.00;46.66;101174.98;103855;1303;75664;-83
2022/05/11 10:22:00;;;;;;;;;;;;;;;21.06;46.22;101163.71;105471;1303;72707;-81
2022/05/11 10:24:26;;;;;;;;;;;;;;;21.07;46.18;101168.64;105953;1297;75621;-81
2022/05/11 10:26:51;;;;;;;;;;;;;;;21.07;46.05;101166.48;105888;1299;60231;-81
2022/05/11 10:29:30;;;;;;;;;;;;;;;21.07;46.06;101165.40;106077;1296;60452;-81
2022/05/11 10:32:06;;;;;;;;;;;;;;;21.08;46.08;101160.89;106117;1297;74416;-82
2022/05/11 10:34:49;;;;;;;;;;;;;;;21.09;46.00;101166.55;104797;1296;76737;-82
2022/05/11 10:37:28;;;;;;;;;;;;;;;21.10;45.52;101164.67;104463;1299;62219;-82
2022/05/11 10:40:15;;;;;;;;;;;;;;;21.10;45.56;101164.48;104473;1297;62134;-81
2022/05/11 10:42:43;;;;;;;;;;;;;;;21.10;45.73;101159.14;104283;1299;72742;-82
2022/05/11 10:45:09;;;;;;;;;;;;;;;21.09;45.68;101157.73;104484;1297;76628;-82
2022/05/11 10:48:05;;;;;;;;;;;;;;;21.08;45.53;101155.11;106023;1297;60260;-81
2022/05/11 10:50:50;;;;;;;;;;;;;;;21.08;45.65;101155.48;106050;1297;60472;-80
2022/05/11 10:53:36;;;;;;;;;;;;;;;21.09;45.76;101154.67;105946;1297;72787;-81
2022/05/11 10:56:07;;;;;;;;;;;;;;;21.11;45.82;101144.22;105805;1299;76593;-81
2022/05/11 10:58:54;;;;;;;;;;;;;;;21.15;45.27;101143.44;106049;1297;61837;-81
2022/05/11 11:01:21;;;;;;;;;;;;;;;21.16;45.00;101142.27;106085;1297;60620;-81
2022/05/11 11:03:51;;;;;;;;;;;;;;;21.16;44.80;101138.66;105967;1296;72780;-81
2022/05/11 11:09:06;;;;;;;;;;;;;;;21.17;45.06;101139.38;106077;1297;61300;-82
2022/05/11 11:11:50;;;;;;;;;;;;;;;21.18;44.89;101139.13;106106;1297;62473;-82
2022/05/11 11:14:19;;;;;;;;;;;;;;;21.19;44.80;101138.65;106113;1297;72686;-81
2022/05/11 11:16:45;;;;;;;;;;;;;;;21.22;44.25;101134.52;106042;1297;75938;-82
2022/05/11 11:19:10;;;;;;;;;;;;;;;21.21;44.46;101127.27;106039;1297;60317;-82
2022/05/11 11:21:39;;;;;;;;;;;;;;;21.21;44.11;101123.00;106087;1297;59985;-82
2022/05/11 11:24:12;;;;;;;;;;;;;;;21.23;44.31;101120.00;106093;1296;73094;-81
2022/05/11 11:26:41;;;;;;;;;;;;;;;21.23;44.30;101126.25;104782;1297;76104;-81
2022/05/11 11:29:08;;;;;;;;;;;;;;;21.23;44.55;101122.48;104684;1297;62069;-82
2022/05/11 11:31:37;;;;;;;;;;;;;;;21.24;44.20;101119.91;104905;1297;62159;-82
2022/05/11 11:34:09;;;;;;;;;;;;;;;21.25;44.24;101125.06;104679;1299;72774;-83
2022/05/11 11:36:38;;;;;;;;;;;;;;;21.24;44.35;101122.97;104956;1297;75449;-86
2022/05/11 11:39:04;;;;;;;;;;;;;;;21.22;44.56;101124.48;104750;1297;62152;-82
2022/05/11 11:42:03;;;;;;;;;;;;;;;21.24;44.56;101131.75;104924;1297;61948;-81
2022/05/11 11:44:35;;;;;;;;;;;;;;;21.23;44.75;101129.42;104334;1302;74383;-79
2022/05/11 11:47:00;;;;;;;;;;;;;;;21.24;44.81;101129.39;104199;1303;75410;-81
2022/05/11 11:49:27;;;;;;;;;;;;;;;21.25;44.99;101127.91;104251;1302;62312;-81
2022/05/11 11:51:57;;;;;;;;;;;;;;;21.25;45.07;101132.20;104121;1302;62208;-83
2022/05/11 11:54:38;;;;;;;;;;;;;;;21.31;45.14;101127.36;104120;1302;72634;-81
2022/05/11 11:57:12;;;;;;;;;;;;;;;21.32;45.16;101125.30;104104;1302;76619;-82
2022/05/11 11:59:40;;;;;;;;;;;;;;;21.31;44.92;101124.27;104150;1302;62015;-82
2022/05/11 12:02:24;;;;;;;;;;;;;;;21.30;45.00;101122.04;104132;1303;61960;-82
2022/05/11 12:05:10;;;;;;;;;;;;;;;21.29;44.97;101111.19;104267;1302;73151;-82
2022/05/11 12:16:17;;;;;;;;;;;;;;;21.26;44.79;101087.55;104434;1303;73976;-82
2022/05/11 12:18:43;;;;;;;;;;;;;;;21.26;44.35;101093.81;104466;1302;62100;-82
2022/05/11 12:21:13;;;;;;;;;;;;;;;21.25;44.71;101095.33;104759;1297;62144;-84
2022/05/11 12:23:46;;;;;;;;;;;;;;;21.23;44.76;101089.69;105113;1296;62645;-82
2022/05/11 12:26:13;;;;;;;;;;;;;;;21.23;44.32;101085.04;104936;1299;73508;-83
2022/05/11 12:28:42;;;;;;;;;;;;;;;21.23;44.03;101081.45;105155;1298;77205;-82
2022/05/11 12:31:23;;;;;;;;;;;;;;;21.23;43.95;101073.94;105181;1299;62092;-82
2022/05/11 12:33:52;;;;;;;;;;;;;;;21.23;44.03;101074.52;105214;1299;61731;-81
2022/05/11 12:36:31;;;;;;;;;;;;;;;21.21;44.22;101069.44;105226;1298;72569;-86
2022/05/11 12:38:56;;;;;;;;;;;;;;;21.19;44.30;101065.09;105380;1297;75752;-82
2022/05/11 12:41:27;;;;;;;;;;;;;;;21.18;44.08;101065.52;105484;1297;62074;-84
2022/05/11 12:43:57;;;;;;;;;;;;;;;21.17;44.12;101063.65;105284;1296;62020;-82
2022/05/11 12:46:23;;;;;;;;;;;;;;;21.16;44.32;101065.54;105309;1296;73764;-85
2022/05/11 12:48:57;;;;;;;;;;;;;;;21.14;44.42;101058.99;105251;1297;62117;-84
2022/05/11 12:51:26;;;;;;;;;;;;;;;21.13;44.28;101053.02;105014;1297;62194;-81
2022/05/11 12:53:53;;;;;;;;;;;;;;;21.12;44.50;101052.02;104880;1297;62049;-81
2022/05/11 12:56:23;;;;;;;;;;;;;;;21.10;44.51;101051.38;104869;1297;61961;-81
2022/05/11 12:58:53;;;;;;;;;;;;;;;21.10;44.77;101049.45;104897;1297;76566;-82
2022/05/11 13:01:21;;;;;;;;;;;;;;;21.09;44.67;101045.54;105123;1297;62042;-81
2022/05/11 13:03:50;;;;;;;;;;;;;;;21.09;44.82;101042.52;104915;1296;62085;-81
2022/05/11 13:06:22;;;;;;;;;;;;;;;21.08;44.89;101045.59;105342;1297;73013;-82
2022/05/11 13:08:48;;;;;;;;;;;;;;;21.09;45.04;101042.54;104868;1298;74738;-82
2022/05/11 13:11:15;;;;;;;;;;;;;;;21.09;45.04;101042.15;105263;1297;62082;-82
2022/05/11 13:13:42;;;;;;;;;;;;;;;21.09;45.03;101036.42;105377;1296;62057;-82
2022/05/11 13:16:08;;;;;;;;;;;;;;;21.09;45.08;101037.64;106118;1299;72554;-81
2022/05/11 13:18:34;;;;;;;;;;;;;;;21.10;45.07;101036.91;105988;1297;60730;-82
2022/05/11 13:21:00;;;;;;;;;;;;;;;21.11;45.29;101035.94;105197;1298;62083;-82
2022/05/11 13:23:38;;;;;;;;;;;;;;;21.12;45.12;101032.16;105239;1298;62019;-82
2022/05/11 13:26:29;;;;;;;;;;;;;;;21.12;45.07;101026.38;105195;1299;72794;-82
2022/05/11 13:28:57;;;;;;;;;;;;;;;21.13;45.25;101025.26;104597;1305;75633;-83
2022/05/11 13:31:25;;;;;;;;;;;;;;;21.13;45.18;101027.93;104536;1305;62376;-85
2022/05/11 13:33:57;;;;;;;;;;;;;;;21.13;45.25;101022.21;104489;1308;62067;-83
2022/05/11 13:36:33;;;;;;;;;;;;;;;21.13;44.98;101024.73;104642;1305;74102;-84
2022/05/11 13:39:01;;;;;;;;;;;;;;;21.13;45.33;101019.85;104488;1307;75697;-80
2022/05/11 13:41:37;;;;;;;;;;;;;;;21.14;45.06;101019.46;104743;1305;62273;-83
2022/05/11 13:44:09;;;;;;;;;;;;;;;21.14;44.94;101014.08;104679;1305;62009;-86
2022/05/11 13:46:38;;;;;;;;;;;;;;;21.15;45.09;101014.23;104532;1305;72862;-83
2022/05/11 13:49:32;;;;;;;;;;;;;;;21.15;45.11;101006.30;104690;1305;75651;-84
2022/05/11 13:52:20;;;;;;;;;;;;;;;21.16;45.12;101002.49;104747;1305;62094;-85
2022/05/11 13:54:54;;;;;;;;;;;;;;;21.16;45.01;101003.55;104532;1306;61961;-82
2022/05/11 13:57:45;;;;;;;;;;;;;;;21.17;44.83;100996.53;104760;1305;73800;-84